sensor_id;sensor_type;location;lat;lon;timestamp;P1;durP1;ratioP1;P2;durP2;ratioP2
16826;SDS011;8530;49.540;8.576;2023-07-09T00:00:53;8.30;;;5.33;;
16826;SDS011;8530;49.540;8.576;2023-07-09T00:03:19;12.10;;;4.30;;
16826;SDS011;8530;49.540;8.576;2023-07-09T00:05:47;8.90;;;5.27;;
16826;SDS011;8530;49.540;8.576;2023-07-09T00:08:27;9.30;;;5.07;;
16826;SDS011;8530;49.540;8.576;2023-07-09T00:10:56;13.00;;;5.63;;
16826;SDS011;8530;49.540;8.576;2023-07-09T00:13:24;9.50;;;4.23;;
16826;SDS011;8530;49.540;8.576;2023-07-09T00:15:55;8.37;;;4.57;;
16826;SDS011;8530;49.540;8.576;2023-07-09T00:18:24;12.00;;;4.43;;
16826;SDS011;8530;49.540;8.576;2023-07-09T00:20:51;7.87;;;4.20;;
16826;SDS011;8530;49.540;8.576;2023-07-09T00:23:17;11.77;;;5.33;;
16826;SDS011;8530;49.540;8.576;2023-07-09T00:25:44;7.73;;;5.27;;
16826;SDS011;8530;49.540;8.576;2023-07-09T00:28:12;7.43;;;5.60;;
16826;SDS011;8530;49.540;8.576;2023-07-09T00:30:40;8.67;;;4.70;;
16826;SDS011;8530;49.540;8.576;2023-07-09T00:33:09;6.10;;;4.87;;
16826;SDS011;8530;49.540;8.576;2023-07-09T00:35:39;7.97;;;4.93;;
16826;SDS011;8530;49.540;8.576;2023-07-09T00:38:07;7.77;;;5.37;;
16826;SDS011;8530;49.540;8.576;2023-07-09T00:40:43;10.93;;;4.80;;
16826;SDS011;8530;49.540;8.576;2023-07-09T00:43:13;6.30;;;4.27;;
16826;SDS011;8530;49.540;8.576;2023-07-09T00:45:42;7.50;;;4.80;;
16826;SDS011;8530;49.540;8.576;2023-07-09T00:48:11;16.47;;;5.73;;
16826;SDS011;8530;49.540;8.576;2023-07-09T00:50:41;11.53;;;4.90;;
16826;SDS011;8530;49.540;8.576;2023-07-09T00:53:13;7.37;;;5.20;;
16826;SDS011;8530;49.540;8.576;2023-07-09T00:55:44;9.63;;;5.87;;
16826;SDS011;8530;49.540;8.576;2023-07-09T00:58:15;5.80;;;4.20;;
16826;SDS011;8530;49.540;8.576;2023-07-09T01:00:44;8.73;;;4.97;;
16826;SDS011;8530;49.540;8.576;2023-07-09T01:03:21;7.97;;;4.47;;
16826;SDS011;8530;49.540;8.576;2023-07-09T01:05:54;7.10;;;4.23;;
16826;SDS011;8530;49.540;8.576;2023-07-09T01:08:23;8.60;;;4.90;;
16826;SDS011;8530;49.540;8.576;2023-07-09T01:10:50;5.90;;;3.80;;
16826;SDS011;8530;49.540;8.576;2023-07-09T01:13:17;6.93;;;3.97;;
16826;SDS011;8530;49.540;8.576;2023-07-09T01:15:44;9.20;;;4.83;;
16826;SDS011;8530;49.540;8.576;2023-07-09T01:18:12;7.00;;;4.57;;
16826;SDS011;8530;49.540;8.576;2023-07-09T01:20:41;11.60;;;5.53;;
16826;SDS011;8530;49.540;8.576;2023-07-09T01:23:09;7.13;;;4.83;;
16826;SDS011;8530;49.540;8.576;2023-07-09T01:25:38;13.73;;;5.60;;
16826;SDS011;8530;49.540;8.576;2023-07-09T01:28:08;10.00;;;5.90;;
16826;SDS011;8530;49.540;8.576;2023-07-09T01:30:36;10.40;;;5.33;;
16826;SDS011;8530;49.540;8.576;2023-07-09T01:33:04;7.00;;;4.80;;
16826;SDS011;8530;49.540;8.576;2023-07-09T01:35:34;12.33;;;4.93;;
16826;SDS011;8530;49.540;8.576;2023-07-09T01:38:04;6.90;;;5.00;;
16826;SDS011;8530;49.540;8.576;2023-07-09T01:40:33;9.03;;;4.90;;
16826;SDS011;8530;49.540;8.576;2023-07-09T01:43:00;7.90;;;4.50;;
16826;SDS011;8530;49.540;8.576;2023-07-09T01:45:31;6.07;;;3.73;;
16826;SDS011;8530;49.540;8.576;2023-07-09T01:47:58;8.50;;;4.63;;
16826;SDS011;8530;49.540;8.576;2023-07-09T01:50:25;8.93;;;4.97;;
16826;SDS011;8530;49.540;8.576;2023-07-09T01:52:52;7.83;;;5.10;;
16826;SDS011;8530;49.540;8.576;2023-07-09T01:55:20;8.40;;;4.90;;
16826;SDS011;8530;49.540;8.576;2023-07-09T01:57:48;6.47;;;5.17;;
16826;SDS011;8530;49.540;8.576;2023-07-09T02:00:16;9.13;;;5.67;;
16826;SDS011;8530;49.540;8.576;2023-07-09T02:02:44;11.73;;;6.37;;
16826;SDS011;8530;49.540;8.576;2023-07-09T02:05:13;8.70;;;4.80;;
16826;SDS011;8530;49.540;8.576;2023-07-09T02:07:41;6.53;;;4.90;;
16826;SDS011;8530;49.540;8.576;2023-07-09T02:10:08;9.60;;;6.30;;
16826;SDS011;8530;49.540;8.576;2023-07-09T02:12:36;11.83;;;5.13;;
16826;SDS011;8530;49.540;8.576;2023-07-09T02:15:05;10.10;;;4.87;;
16826;SDS011;8530;49.540;8.576;2023-07-09T02:17:32;10.37;;;4.90;;
16826;SDS011;8530;49.540;8.576;2023-07-09T02:19:59;6.07;;;4.90;;
16826;SDS011;8530;49.540;8.576;2023-07-09T02:22:25;8.50;;;5.10;;
16826;SDS011;8530;49.540;8.576;2023-07-09T02:24:52;10.80;;;5.30;;
16826;SDS011;8530;49.540;8.576;2023-07-09T02:27:19;7.77;;;4.63;;
16826;SDS011;8530;49.540;8.576;2023-07-09T02:29:46;9.17;;;4.47;;
16826;SDS011;8530;49.540;8.576;2023-07-09T02:32:16;11.00;;;5.30;;
16826;SDS011;8530;49.540;8.576;2023-07-09T02:34:45;8.90;;;5.27;;
16826;SDS011;8530;49.540;8.576;2023-07-09T02:37:14;8.93;;;5.10;;
16826;SDS011;8530;49.540;8.576;2023-07-09T02:39:42;8.13;;;4.63;;
16826;SDS011;8530;49.540;8.576;2023-07-09T02:42:09;5.20;;;4.67;;
16826;SDS011;8530;49.540;8.576;2023-07-09T02:44:37;6.60;;;4.63;;
16826;SDS011;8530;49.540;8.576;2023-07-09T02:47:04;13.87;;;5.10;;
16826;SDS011;8530;49.540;8.576;2023-07-09T02:49:33;7.03;;;4.33;;
16826;SDS011;8530;49.540;8.576;2023-07-09T02:52:00;8.67;;;5.13;;
16826;SDS011;8530;49.540;8.576;2023-07-09T02:54:27;8.60;;;5.50;;
16826;SDS011;8530;49.540;8.576;2023-07-09T02:56:54;7.20;;;4.47;;
16826;SDS011;8530;49.540;8.576;2023-07-09T02:59:20;6.20;;;4.67;;
16826;SDS011;8530;49.540;8.576;2023-07-09T03:01:47;7.47;;;4.43;;
16826;SDS011;8530;49.540;8.576;2023-07-09T03:04:15;5.83;;;4.47;;
16826;SDS011;8530;49.540;8.576;2023-07-09T03:06:43;13.00;;;5.47;;
16826;SDS011;8530;49.540;8.576;2023-07-09T03:09:10;7.20;;;5.80;;
16826;SDS011;8530;49.540;8.576;2023-07-09T03:11:36;6.43;;;5.10;;
16826;SDS011;8530;49.540;8.576;2023-07-09T03:14:03;11.03;;;5.90;;
16826;SDS011;8530;49.540;8.576;2023-07-09T03:16:31;5.63;;;4.80;;
16826;SDS011;8530;49.540;8.576;2023-07-09T03:18:59;10.00;;;5.97;;
16826;SDS011;8530;49.540;8.576;2023-07-09T03:21:27;9.13;;;5.80;;
16826;SDS011;8530;49.540;8.576;2023-07-09T03:23:55;8.03;;;5.27;;
16826;SDS011;8530;49.540;8.576;2023-07-09T03:26:22;9.00;;;4.70;;
16826;SDS011;8530;49.540;8.576;2023-07-09T03:28:50;8.90;;;5.73;;
16826;SDS011;8530;49.540;8.576;2023-07-09T03:31:17;7.03;;;5.10;;
16826;SDS011;8530;49.540;8.576;2023-07-09T03:33:45;7.63;;;5.17;;
16826;SDS011;8530;49.540;8.576;2023-07-09T03:36:12;8.33;;;5.20;;
16826;SDS011;8530;49.540;8.576;2023-07-09T03:38:39;8.77;;;4.87;;
16826;SDS011;8530;49.540;8.576;2023-07-09T03:41:07;5.73;;;4.63;;
16826;SDS011;8530;49.540;8.576;2023-07-09T03:43:34;8.23;;;5.20;;
16826;SDS011;8530;49.540;8.576;2023-07-09T03:46:01;6.73;;;5.23;;
16826;SDS011;8530;49.540;8.576;2023-07-09T03:48:27;8.63;;;5.07;;
16826;SDS011;8530;49.540;8.576;2023-07-09T03:50:54;8.13;;;6.00;;
16826;SDS011;8530;49.540;8.576;2023-07-09T03:53:21;6.47;;;4.70;;
16826;SDS011;8530;49.540;8.576;2023-07-09T03:55:51;11.50;;;4.97;;
16826;SDS011;8530;49.540;8.576;2023-07-09T03:58:20;6.20;;;4.57;;
16826;SDS011;8530;49.540;8.576;2023-07-09T04:00:47;9.13;;;5.30;;
16826;SDS011;8530;49.540;8.576;2023-07-09T04:03:14;17.03;;;4.60;;
16826;SDS011;8530;49.540;8.576;2023-07-09T04:05:41;6.70;;;4.77;;
16826;SDS011;8530;49.540;8.576;2023-07-09T04:08:07;12.47;;;5.17;;
16826;SDS011;8530;49.540;8.576;2023-07-09T04:10:34;8.87;;;4.93;;
16826;SDS011;8530;49.540;8.576;2023-07-09T04:13:00;9.07;;;5.40;;
16826;SDS011;8530;49.540;8.576;2023-07-09T04:15:29;9.33;;;5.90;;
16826;SDS011;8530;49.540;8.576;2023-07-09T04:17:55;11.27;;;4.80;;
16826;SDS011;8530;49.540;8.576;2023-07-09T04:20:22;8.20;;;4.77;;
16826;SDS011;8530;49.540;8.576;2023-07-09T04:22:49;9.13;;;4.90;;
16826;SDS011;8530;49.540;8.576;2023-07-09T04:25:16;11.47;;;4.57;;
16826;SDS011;8530;49.540;8.576;2023-07-09T04:27:43;5.57;;;4.70;;
16826;SDS011;8530;49.540;8.576;2023-07-09T04:30:10;5.80;;;4.13;;
16826;SDS011;8530;49.540;8.576;2023-07-09T04:32:40;8.80;;;5.20;;
16826;SDS011;8530;49.540;8.576;2023-07-09T04:35:09;20.53;;;5.50;;
16826;SDS011;8530;49.540;8.576;2023-07-09T04:37:36;10.00;;;4.70;;
16826;SDS011;8530;49.540;8.576;2023-07-09T04:40:03;8.77;;;4.97;;
16826;SDS011;8530;49.540;8.576;2023-07-09T04:42:32;8.67;;;5.30;;
16826;SDS011;8530;49.540;8.576;2023-07-09T04:44:59;8.50;;;5.40;;
16826;SDS011;8530;49.540;8.576;2023-07-09T04:47:25;8.00;;;5.30;;
16826;SDS011;8530;49.540;8.576;2023-07-09T04:49:53;6.77;;;5.23;;
16826;SDS011;8530;49.540;8.576;2023-07-09T04:52:20;8.80;;;5.73;;
16826;SDS011;8530;49.540;8.576;2023-07-09T04:54:47;6.53;;;5.10;;
16826;SDS011;8530;49.540;8.576;2023-07-09T04:57:15;8.30;;;4.80;;
16826;SDS011;8530;49.540;8.576;2023-07-09T04:59:42;12.30;;;5.90;;
16826;SDS011;8530;49.540;8.576;2023-07-09T05:02:09;12.70;;;5.83;;
16826;SDS011;8530;49.540;8.576;2023-07-09T05:04:36;8.07;;;5.63;;
16826;SDS011;8530;49.540;8.576;2023-07-09T05:07:04;14.03;;;6.07;;
16826;SDS011;8530;49.540;8.576;2023-07-09T05:09:31;8.47;;;5.80;;
16826;SDS011;8530;49.540;8.576;2023-07-09T05:11:59;31.50;;;7.00;;
16826;SDS011;8530;49.540;8.576;2023-07-09T05:14:25;10.10;;;5.63;;
16826;SDS011;8530;49.540;8.576;2023-07-09T05:16:53;11.53;;;6.70;;
16826;SDS011;8530;49.540;8.576;2023-07-09T05:19:20;7.00;;;6.30;;
16826;SDS011;8530;49.540;8.576;2023-07-09T05:21:46;8.90;;;6.30;;
16826;SDS011;8530;49.540;8.576;2023-07-09T05:24:14;7.60;;;5.50;;
16826;SDS011;8530;49.540;8.576;2023-07-09T05:26:41;10.67;;;6.77;;
16826;SDS011;8530;49.540;8.576;2023-07-09T05:29:08;11.67;;;6.53;;
16826;SDS011;8530;49.540;8.576;2023-07-09T05:31:34;9.90;;;6.20;;
16826;SDS011;8530;49.540;8.576;2023-07-09T05:34:01;8.77;;;5.53;;
16826;SDS011;8530;49.540;8.576;2023-07-09T05:36:28;9.90;;;6.10;;
16826;SDS011;8530;49.540;8.576;2023-07-09T05:38:55;7.37;;;4.73;;
16826;SDS011;8530;49.540;8.576;2023-07-09T05:41:24;9.60;;;6.97;;
16826;SDS011;8530;49.540;8.576;2023-07-09T05:43:51;11.07;;;5.60;;
16826;SDS011;8530;49.540;8.576;2023-07-09T05:46:18;13.13;;;6.07;;
16826;SDS011;8530;49.540;8.576;2023-07-09T05:48:48;8.43;;;4.90;;
16826;SDS011;8530;49.540;8.576;2023-07-09T05:51:14;8.27;;;5.73;;
16826;SDS011;8530;49.540;8.576;2023-07-09T05:53:41;8.97;;;5.67;;
16826;SDS011;8530;49.540;8.576;2023-07-09T05:56:08;13.02;;;4.97;;
16826;SDS011;8530;49.540;8.576;2023-07-09T05:58:36;10.13;;;5.65;;
16826;SDS011;8530;49.540;8.576;2023-07-09T06:01:03;8.07;;;5.13;;
16826;SDS011;8530;49.540;8.576;2023-07-09T06:03:30;6.47;;;4.70;;
16826;SDS011;8530;49.540;8.576;2023-07-09T06:05:58;10.55;;;5.15;;
16826;SDS011;8530;49.540;8.576;2023-07-09T06:08:25;7.90;;;5.03;;
16826;SDS011;8530;49.540;8.576;2023-07-09T06:10:56;5.97;;;4.13;;
16826;SDS011;8530;49.540;8.576;2023-07-09T06:13:24;5.55;;;3.72;;
16826;SDS011;8530;49.540;8.576;2023-07-09T06:15:54;5.93;;;4.90;;
16826;SDS011;8530;49.540;8.576;2023-07-09T06:18:21;6.40;;;4.55;;
16826;SDS011;8530;49.540;8.576;2023-07-09T06:20:49;11.38;;;4.35;;
16826;SDS011;8530;49.540;8.576;2023-07-09T06:23:17;4.95;;;4.00;;
16826;SDS011;8530;49.540;8.576;2023-07-09T06:25:45;4.95;;;3.78;;
16826;SDS011;8530;49.540;8.576;2023-07-09T06:28:13;15.20;;;4.45;;
16826;SDS011;8530;49.540;8.576;2023-07-09T06:30:40;6.88;;;4.03;;
16826;SDS011;8530;49.540;8.576;2023-07-09T06:33:09;6.70;;;4.93;;
16826;SDS011;8530;49.540;8.576;2023-07-09T06:35:37;14.95;;;5.68;;
16826;SDS011;8530;49.540;8.576;2023-07-09T06:38:04;7.30;;;4.88;;
16826;SDS011;8530;49.540;8.576;2023-07-09T06:40:31;7.57;;;5.40;;
16826;SDS011;8530;49.540;8.576;2023-07-09T06:42:57;8.98;;;4.97;;
16826;SDS011;8530;49.540;8.576;2023-07-09T06:45:24;6.57;;;5.10;;
16826;SDS011;8530;49.540;8.576;2023-07-09T06:47:51;7.63;;;5.03;;
16826;SDS011;8530;49.540;8.576;2023-07-09T06:50:19;9.13;;;5.10;;
16826;SDS011;8530;49.540;8.576;2023-07-09T06:52:45;8.32;;;5.15;;
16826;SDS011;8530;49.540;8.576;2023-07-09T06:55:12;5.63;;;4.78;;
16826;SDS011;8530;49.540;8.576;2023-07-09T06:57:39;10.80;;;5.07;;
16826;SDS011;8530;49.540;8.576;2023-07-09T07:00:06;7.50;;;6.60;;
16826;SDS011;8530;49.540;8.576;2023-07-09T07:02:34;8.88;;;6.03;;
16826;SDS011;8530;49.540;8.576;2023-07-09T07:05:00;11.40;;;6.65;;
16826;SDS011;8530;49.540;8.576;2023-07-09T07:07:29;10.40;;;5.80;;
16826;SDS011;8530;49.540;8.576;2023-07-09T07:09:55;8.50;;;5.55;;
16826;SDS011;8530;49.540;8.576;2023-07-09T07:12:26;11.40;;;6.32;;
16826;SDS011;8530;49.540;8.576;2023-07-09T07:14:54;9.27;;;5.43;;
16826;SDS011;8530;49.540;8.576;2023-07-09T07:17:21;9.07;;;6.30;;
16826;SDS011;8530;49.540;8.576;2023-07-09T07:19:49;13.05;;;6.47;;
16826;SDS011;8530;49.540;8.576;2023-07-09T07:22:16;11.20;;;6.40;;
16826;SDS011;8530;49.540;8.576;2023-07-09T07:24:44;9.93;;;6.47;;
16826;SDS011;8530;49.540;8.576;2023-07-09T07:27:10;8.75;;;6.63;;
16826;SDS011;8530;49.540;8.576;2023-07-09T07:29:37;12.48;;;7.10;;
16826;SDS011;8530;49.540;8.576;2023-07-09T07:32:04;8.50;;;6.47;;
16826;SDS011;8530;49.540;8.576;2023-07-09T07:34:32;13.00;;;8.55;;
16826;SDS011;8530;49.540;8.576;2023-07-09T07:36:59;9.48;;;6.95;;
16826;SDS011;8530;49.540;8.576;2023-07-09T07:39:25;7.70;;;6.22;;
16826;SDS011;8530;49.540;8.576;2023-07-09T07:41:53;7.40;;;5.85;;
16826;SDS011;8530;49.540;8.576;2023-07-09T07:44:21;7.35;;;5.63;;
16826;SDS011;8530;49.540;8.576;2023-07-09T07:46:47;8.02;;;6.10;;
16826;SDS011;8530;49.540;8.576;2023-07-09T07:49:14;20.08;;;7.22;;
16826;SDS011;8530;49.540;8.576;2023-07-09T07:51:41;7.97;;;6.40;;
16826;SDS011;8530;49.540;8.576;2023-07-09T07:54:09;8.52;;;6.38;;
16826;SDS011;8530;49.540;8.576;2023-07-09T07:56:35;10.75;;;6.25;;
16826;SDS011;8530;49.540;8.576;2023-07-09T07:59:04;7.95;;;6.32;;
16826;SDS011;8530;49.540;8.576;2023-07-09T08:01:30;7.90;;;5.28;;
16826;SDS011;8530;49.540;8.576;2023-07-09T08:03:59;11.80;;;5.65;;
16826;SDS011;8530;49.540;8.576;2023-07-09T08:06:26;7.57;;;5.80;;
16826;SDS011;8530;49.540;8.576;2023-07-09T08:08:52;10.40;;;5.20;;
16826;SDS011;8530;49.540;8.576;2023-07-09T08:11:19;9.45;;;6.13;;
16826;SDS011;8530;49.540;8.576;2023-07-09T08:13:45;9.90;;;6.25;;
16826;SDS011;8530;49.540;8.576;2023-07-09T08:16:14;7.47;;;5.32;;
16826;SDS011;8530;49.540;8.576;2023-07-09T08:18:40;6.35;;;4.82;;
16826;SDS011;8530;49.540;8.576;2023-07-09T08:21:07;10.70;;;5.28;;
16826;SDS011;8530;49.540;8.576;2023-07-09T08:23:34;12.55;;;5.32;;
16826;SDS011;8530;49.540;8.576;2023-07-09T08:26:02;12.02;;;5.53;;
16826;SDS011;8530;49.540;8.576;2023-07-09T08:28:29;8.57;;;4.88;;
16826;SDS011;8530;49.540;8.576;2023-07-09T08:30:56;12.43;;;6.05;;
16826;SDS011;8530;49.540;8.576;2023-07-09T08:33:24;7.57;;;5.00;;
16826;SDS011;8530;49.540;8.576;2023-07-09T08:35:51;6.47;;;4.95;;
16826;SDS011;8530;49.540;8.576;2023-07-09T08:38:19;13.75;;;4.50;;
16826;SDS011;8530;49.540;8.576;2023-07-09T08:40:50;8.43;;;5.88;;
16826;SDS011;8530;49.540;8.576;2023-07-09T08:43:24;10.65;;;4.85;;
16826;SDS011;8530;49.540;8.576;2023-07-09T08:46:01;14.07;;;5.65;;
16826;SDS011;8530;49.540;8.576;2023-07-09T08:48:35;7.07;;;5.30;;
16826;SDS011;8530;49.540;8.576;2023-07-09T08:51:06;9.60;;;5.95;;
16826;SDS011;8530;49.540;8.576;2023-07-09T08:53:41;7.10;;;5.35;;
16826;SDS011;8530;49.540;8.576;2023-07-09T08:56:11;6.63;;;5.13;;
16826;SDS011;8530;49.540;8.576;2023-07-09T08:58:40;8.00;;;4.28;;
16826;SDS011;8530;49.540;8.576;2023-07-09T09:01:13;7.45;;;4.80;;
16826;SDS011;8530;49.540;8.576;2023-07-09T09:03:46;10.20;;;5.90;;
16826;SDS011;8530;49.540;8.576;2023-07-09T09:06:16;8.60;;;5.18;;
16826;SDS011;8530;49.540;8.576;2023-07-09T09:08:47;8.75;;;4.20;;
16826;SDS011;8530;49.540;8.576;2023-07-09T09:11:29;6.10;;;4.50;;
16826;SDS011;8530;49.540;8.576;2023-07-09T09:14:05;7.68;;;4.78;;
16826;SDS011;8530;49.540;8.576;2023-07-09T09:16:44;8.15;;;4.90;;
16826;SDS011;8530;49.540;8.576;2023-07-09T09:19:15;15.70;;;4.95;;
16826;SDS011;8530;49.540;8.576;2023-07-09T09:21:48;9.63;;;4.63;;
16826;SDS011;8530;49.540;8.576;2023-07-09T09:24:22;7.22;;;4.90;;
16826;SDS011;8530;49.540;8.576;2023-07-09T09:26:53;7.40;;;4.53;;
16826;SDS011;8530;49.540;8.576;2023-07-09T09:29:24;8.70;;;4.82;;
16826;SDS011;8530;49.540;8.576;2023-07-09T09:31:53;5.32;;;4.57;;
16826;SDS011;8530;49.540;8.576;2023-07-09T09:34:24;7.25;;;5.13;;
16826;SDS011;8530;49.540;8.576;2023-07-09T09:36:52;11.40;;;4.97;;
16826;SDS011;8530;49.540;8.576;2023-07-09T09:39:19;8.15;;;5.32;;
16826;SDS011;8530;49.540;8.576;2023-07-09T09:41:46;7.75;;;4.65;;
16826;SDS011;8530;49.540;8.576;2023-07-09T09:44:17;11.20;;;5.00;;
16826;SDS011;8530;49.540;8.576;2023-07-09T09:46:45;8.80;;;5.15;;
16826;SDS011;8530;49.540;8.576;2023-07-09T09:49:14;6.00;;;4.75;;
16826;SDS011;8530;49.540;8.576;2023-07-09T09:51:43;8.18;;;4.40;;
16826;SDS011;8530;49.540;8.576;2023-07-09T09:54:14;7.82;;;5.85;;
16826;SDS011;8530;49.540;8.576;2023-07-09T09:56:47;8.55;;;5.18;;
16826;SDS011;8530;49.540;8.576;2023-07-09T09:59:19;6.90;;;4.82;;
16826;SDS011;8530;49.540;8.576;2023-07-09T10:01:47;7.25;;;5.03;;
16826;SDS011;8530;49.540;8.576;2023-07-09T10:04:23;8.88;;;5.10;;
16826;SDS011;8530;49.540;8.576;2023-07-09T10:06:52;8.30;;;4.32;;
16826;SDS011;8530;49.540;8.576;2023-07-09T10:09:24;6.60;;;4.75;;
16826;SDS011;8530;49.540;8.576;2023-07-09T10:12:02;8.85;;;5.78;;
16826;SDS011;8530;49.540;8.576;2023-07-09T10:14:38;6.75;;;4.32;;
16826;SDS011;8530;49.540;8.576;2023-07-09T10:17:13;7.07;;;5.15;;
16826;SDS011;8530;49.540;8.576;2023-07-09T10:19:48;9.02;;;5.65;;
16826;SDS011;8530;49.540;8.576;2023-07-09T10:22:35;7.85;;;4.70;;
16826;SDS011;8530;49.540;8.576;2023-07-09T10:25:10;6.18;;;4.20;;
16826;SDS011;8530;49.540;8.576;2023-07-09T10:27:52;7.97;;;4.25;;
16826;SDS011;8530;49.540;8.576;2023-07-09T10:30:40;9.55;;;4.07;;
16826;SDS011;8530;49.540;8.576;2023-07-09T10:33:12;16.58;;;4.43;;
16826;SDS011;8530;49.540;8.576;2023-07-09T10:35:45;8.00;;;4.38;;
16826;SDS011;8530;49.540;8.576;2023-07-09T10:38:24;5.97;;;4.47;;
16826;SDS011;8530;49.540;8.576;2023-07-09T10:41:00;7.30;;;4.43;;
16826;SDS011;8530;49.540;8.576;2023-07-09T10:43:32;9.55;;;4.68;;
16826;SDS011;8530;49.540;8.576;2023-07-09T10:46:03;7.78;;;4.75;;
16826;SDS011;8530;49.540;8.576;2023-07-09T10:48:36;4.43;;;3.47;;
16826;SDS011;8530;49.540;8.576;2023-07-09T10:51:08;5.57;;;4.40;;
16826;SDS011;8530;49.540;8.576;2023-07-09T10:53:43;6.35;;;3.83;;
16826;SDS011;8530;49.540;8.576;2023-07-09T10:56:15;6.32;;;3.95;;
16826;SDS011;8530;49.540;8.576;2023-07-09T10:58:46;5.68;;;3.83;;
16826;SDS011;8530;49.540;8.576;2023-07-09T11:01:21;12.73;;;5.40;;
16826;SDS011;8530;49.540;8.576;2023-07-09T11:03:56;7.93;;;4.22;;
16826;SDS011;8530;49.540;8.576;2023-07-09T11:06:29;7.03;;;4.03;;
16826;SDS011;8530;49.540;8.576;2023-07-09T11:09:01;7.30;;;4.57;;
16826;SDS011;8530;49.540;8.576;2023-07-09T11:11:31;8.80;;;3.92;;
16826;SDS011;8530;49.540;8.576;2023-07-09T11:14:02;6.35;;;4.38;;
16826;SDS011;8530;49.540;8.576;2023-07-09T11:16:36;6.03;;;4.22;;
16826;SDS011;8530;49.540;8.576;2023-07-09T11:19:12;7.28;;;4.05;;
16826;SDS011;8530;49.540;8.576;2023-07-09T11:21:44;4.50;;;3.30;;
16826;SDS011;8530;49.540;8.576;2023-07-09T11:24:30;7.72;;;3.83;;
16826;SDS011;8530;49.540;8.576;2023-07-09T11:26:58;7.22;;;3.35;;
16826;SDS011;8530;49.540;8.576;2023-07-09T11:29:25;5.55;;;3.65;;
16826;SDS011;8530;49.540;8.576;2023-07-09T11:31:52;7.90;;;4.40;;
16826;SDS011;8530;49.540;8.576;2023-07-09T11:34:19;7.40;;;4.00;;
16826;SDS011;8530;49.540;8.576;2023-07-09T11:36:47;9.60;;;4.55;;
16826;SDS011;8530;49.540;8.576;2023-07-09T11:39:23;5.97;;;3.80;;
16826;SDS011;8530;49.540;8.576;2023-07-09T11:41:56;8.07;;;4.80;;
16826;SDS011;8530;49.540;8.576;2023-07-09T11:44:25;8.07;;;3.63;;
16826;SDS011;8530;49.540;8.576;2023-07-09T11:46:57;5.72;;;3.67;;
16826;SDS011;8530;49.540;8.576;2023-07-09T11:49:44;7.63;;;3.83;;
16826;SDS011;8530;49.540;8.576;2023-07-09T11:52:18;3.85;;;2.83;;
16826;SDS011;8530;49.540;8.576;2023-07-09T11:54:50;5.40;;;3.72;;
16826;SDS011;8530;49.540;8.576;2023-07-09T11:57:19;6.82;;;3.90;;
16826;SDS011;8530;49.540;8.576;2023-07-09T11:59:46;7.90;;;3.92;;
16826;SDS011;8530;49.540;8.576;2023-07-09T12:02:14;7.07;;;3.95;;
16826;SDS011;8530;49.540;8.576;2023-07-09T12:04:44;5.75;;;3.70;;
16826;SDS011;8530;49.540;8.576;2023-07-09T12:07:13;4.88;;;3.50;;
16826;SDS011;8530;49.540;8.576;2023-07-09T12:09:43;5.13;;;3.38;;
16826;SDS011;8530;49.540;8.576;2023-07-09T12:12:16;5.43;;;3.72;;
16826;SDS011;8530;49.540;8.576;2023-07-09T12:14:46;5.47;;;3.78;;
16826;SDS011;8530;49.540;8.576;2023-07-09T12:17:14;6.72;;;3.90;;
16826;SDS011;8530;49.540;8.576;2023-07-09T12:19:40;5.78;;;3.45;;
16826;SDS011;8530;49.540;8.576;2023-07-09T12:22:09;7.00;;;3.33;;
16826;SDS011;8530;49.540;8.576;2023-07-09T12:24:44;5.80;;;4.00;;
16826;SDS011;8530;49.540;8.576;2023-07-09T12:27:24;6.80;;;3.20;;
16826;SDS011;8530;49.540;8.576;2023-07-09T12:29:53;5.78;;;3.30;;
16826;SDS011;8530;49.540;8.576;2023-07-09T12:32:22;4.30;;;3.15;;
16826;SDS011;8530;49.540;8.576;2023-07-09T12:34:52;5.50;;;3.35;;
16826;SDS011;8530;49.540;8.576;2023-07-09T12:37:20;5.78;;;3.92;;
16826;SDS011;8530;49.540;8.576;2023-07-09T12:39:49;7.43;;;3.60;;
16826;SDS011;8530;49.540;8.576;2023-07-09T12:42:17;8.48;;;4.80;;
16826;SDS011;8530;49.540;8.576;2023-07-09T12:44:47;9.52;;;3.83;;
16826;SDS011;8530;49.540;8.576;2023-07-09T12:47:15;7.97;;;3.85;;
16826;SDS011;8530;49.540;8.576;2023-07-09T12:49:44;9.20;;;3.40;;
16826;SDS011;8530;49.540;8.576;2023-07-09T12:52:13;6.57;;;4.03;;
16826;SDS011;8530;49.540;8.576;2023-07-09T12:54:50;7.57;;;4.72;;
16826;SDS011;8530;49.540;8.576;2023-07-09T12:57:18;7.97;;;3.95;;
16826;SDS011;8530;49.540;8.576;2023-07-09T12:59:45;8.20;;;4.38;;
16826;SDS011;8530;49.540;8.576;2023-07-09T13:02:16;7.72;;;5.13;;
16826;SDS011;8530;49.540;8.576;2023-07-09T13:04:44;6.05;;;4.38;;
16826;SDS011;8530;49.540;8.576;2023-07-09T13:07:24;10.02;;;4.78;;
16826;SDS011;8530;49.540;8.576;2023-07-09T13:09:53;13.25;;;4.72;;
16826;SDS011;8530;49.540;8.576;2023-07-09T13:12:28;8.48;;;5.05;;
16826;SDS011;8530;49.540;8.576;2023-07-09T13:14:58;6.40;;;4.30;;
16826;SDS011;8530;49.540;8.576;2023-07-09T13:17:27;5.90;;;4.47;;
16826;SDS011;8530;49.540;8.576;2023-07-09T13:19:55;6.80;;;4.95;;
16826;SDS011;8530;49.540;8.576;2023-07-09T13:22:22;7.18;;;4.47;;
16826;SDS011;8530;49.540;8.576;2023-07-09T13:24:50;6.63;;;4.25;;
16826;SDS011;8530;49.540;8.576;2023-07-09T13:27:16;7.53;;;4.22;;
16826;SDS011;8530;49.540;8.576;2023-07-09T13:29:43;6.57;;;4.85;;
16826;SDS011;8530;49.540;8.576;2023-07-09T13:32:13;11.73;;;3.92;;
16826;SDS011;8530;49.540;8.576;2023-07-09T13:34:41;10.90;;;4.57;;
16826;SDS011;8530;49.540;8.576;2023-07-09T13:37:09;8.38;;;3.38;;
16826;SDS011;8530;49.540;8.576;2023-07-09T13:39:38;9.63;;;3.58;;
16826;SDS011;8530;49.540;8.576;2023-07-09T13:42:05;8.55;;;3.28;;
16826;SDS011;8530;49.540;8.576;2023-07-09T13:44:37;7.15;;;4.07;;
16826;SDS011;8530;49.540;8.576;2023-07-09T13:47:08;6.28;;;3.30;;
16826;SDS011;8530;49.540;8.576;2023-07-09T13:49:38;6.60;;;4.35;;
16826;SDS011;8530;49.540;8.576;2023-07-09T13:52:08;4.63;;;2.90;;
16826;SDS011;8530;49.540;8.576;2023-07-09T13:54:40;4.32;;;3.28;;
16826;SDS011;8530;49.540;8.576;2023-07-09T13:57:09;6.28;;;3.20;;
16826;SDS011;8530;49.540;8.576;2023-07-09T13:59:39;9.68;;;3.67;;
16826;SDS011;8530;49.540;8.576;2023-07-09T14:02:13;5.68;;;2.95;;
16826;SDS011;8530;49.540;8.576;2023-07-09T14:04:47;6.60;;;3.63;;
16826;SDS011;8530;49.540;8.576;2023-07-09T14:07:20;6.68;;;3.10;;
16826;SDS011;8530;49.540;8.576;2023-07-09T14:09:53;7.90;;;3.42;;
16826;SDS011;8530;49.540;8.576;2023-07-09T14:12:20;11.20;;;4.30;;
16826;SDS011;8530;49.540;8.576;2023-07-09T14:14:47;8.02;;;3.53;;
16826;SDS011;8530;49.540;8.576;2023-07-09T14:17:16;7.38;;;3.38;;
16826;SDS011;8530;49.540;8.576;2023-07-09T14:19:42;7.05;;;3.53;;
16826;SDS011;8530;49.540;8.576;2023-07-09T14:22:18;5.13;;;3.60;;
16826;SDS011;8530;49.540;8.576;2023-07-09T14:24:57;7.82;;;3.58;;
16826;SDS011;8530;49.540;8.576;2023-07-09T14:27:24;5.97;;;3.97;;
16826;SDS011;8530;49.540;8.576;2023-07-09T14:29:52;3.95;;;3.15;;
16826;SDS011;8530;49.540;8.576;2023-07-09T14:32:26;8.70;;;4.18;;
16826;SDS011;8530;49.540;8.576;2023-07-09T14:34:58;9.43;;;3.63;;
16826;SDS011;8530;49.540;8.576;2023-07-09T14:37:27;5.95;;;3.60;;
16826;SDS011;8530;49.540;8.576;2023-07-09T14:39:54;4.85;;;2.90;;
16826;SDS011;8530;49.540;8.576;2023-07-09T14:42:21;5.38;;;3.40;;
16826;SDS011;8530;49.540;8.576;2023-07-09T14:44:48;6.07;;;3.97;;
16826;SDS011;8530;49.540;8.576;2023-07-09T14:47:16;6.50;;;3.47;;
16826;SDS011;8530;49.540;8.576;2023-07-09T14:49:44;9.00;;;3.28;;
16826;SDS011;8530;49.540;8.576;2023-07-09T14:52:13;6.60;;;3.80;;
16826;SDS011;8530;49.540;8.576;2023-07-09T14:54:44;8.02;;;4.07;;
16826;SDS011;8530;49.540;8.576;2023-07-09T14:57:16;5.78;;;3.00;;
16826;SDS011;8530;49.540;8.576;2023-07-09T14:59:45;12.77;;;3.95;;
16826;SDS011;8530;49.540;8.576;2023-07-09T15:02:23;8.60;;;3.90;;
16826;SDS011;8530;49.540;8.576;2023-07-09T15:04:56;5.68;;;3.60;;
16826;SDS011;8530;49.540;8.576;2023-07-09T15:07:23;8.90;;;4.05;;
16826;SDS011;8530;49.540;8.576;2023-07-09T15:09:56;4.65;;;3.60;;